Time;durP1;ratioP1;P1;durP2;ratioP2;P2;SDS_P1;SDS_P2;PMS_P1;PMS_P2;Temp;Humidity;BMP_temperature;BMP_pressure;BME280_temperature;BME280_humidity;BME280_pressure;Samples;Min_cycle;Max_cycle;Signal;HPM_P1;HPM_P2
2023/01/08 00:02:10;;;;;;;;;;;;;;;;;;5002627;28;3225;-61
2023/01/08 00:04:35;;;;;;;;;;;;;;;;;;5008447;28;5074;-61
2023/01/08 00:07:00;;;;;;;;;;;;;;;;;;5004508;28;5179;-61
2023/01/08 00:09:26;;;;;;;;;;;;;;;;;;5002204;28;5211;-58
2023/01/08 00:11:51;;;;;;;;;;;;;;;;;;5003887;28;5525;-60
2023/01/08 00:14:16;;;;;;;;;;;;;;;;;;5005074;28;4936;-65
2023/01/08 00:16:41;;;;;;;;;;;;;;;;;;5002513;28;3468;-59
2023/01/08 00:19:07;;;;;;;;;;;;;;;;;;5003163;28;4646;-59
2023/01/08 00:21:32;;;;;;;;;;;;;;;;;;5007405;28;5149;-60
2023/01/08 00:23:57;;;;;;;;;;;;;;;;;;5004274;28;4969;-60
2023/01/08 00:26:23;;;;;;;;;;;;;;;;;;5006967;28;4556;-60
2023/01/08 00:28:48;;;;;;;;;;;;;;;;;;5006708;28;1130;-59
2023/01/08 00:31:13;;;;;;;;;;;;;;;;;;5009178;28;4555;-60
2023/01/08 00:33:39;;;;;;;;;;;;;;;;;;5007109;28;4650;-57
2023/01/08 00:36:22;;;;;;;;;;;;;;;;;;5005499;28;5056;-60
2023/01/08 00:38:47;;;;;;;;;;;;;;;;;;4999898;28;4977;-58
2023/01/08 00:41:13;;;;;;;;;;;;;;;;;;5004367;28;3361;-60
2023/01/08 00:43:38;;;;;;;;;;;;;;;;;;5007701;28;4906;-59
2023/01/08 00:46:04;;;;;;;;;;;;;;;;;;5003726;28;4845;-58
2023/01/08 00:48:30;;;;;;;;;;;;;;;;;;4995507;28;5117;-58
2023/01/08 00:50:55;;;;;;;;;;;;;;;;;;4995687;28;4986;-59
2023/01/08 00:53:20;;;;;;;;;;;;;;;;;;5006262;28;5092;-58
2023/01/08 00:55:46;;;;;;;;;;;;;;;;;;5009932;28;3640;-59
2023/01/08 00:58:11;;;;;;;;;;;;;;;;;;5005299;28;4497;-58
2023/01/08 01:00:36;;;;;;;;;;;;;;;;;;5002844;28;4624;-60
2023/01/08 01:03:02;;;;;;;;;;;;;;;;;;5000516;28;5151;-59
2023/01/08 01:05:27;;;;;;;;;;;;;;;;;;4997903;28;5087;-59
2023/01/08 01:07:52;;;;;;;;;;;;;;;;;;5005233;28;3310;-62
2023/01/08 01:10:17;;;;;;;;;;;;;;;;;;4985274;28;4692;-59
2023/01/08 01:12:43;;;;;;;;;;;;;;;;;;4976676;28;5129;-59
2023/01/08 01:15:12;;;;;;;;;;;;;;;;;;4984042;28;5229;-62
2023/01/08 01:17:37;;;;;;;;;;;;;;;;;;4984022;28;5124;-59
2023/01/08 01:20:03;;;;;;;;;;;;;;;;;;4986880;28;4336;-59
2023/01/08 01:22:28;;;;;;;;;;;;;;;;;;4982800;28;4990;-59
2023/01/08 01:24:54;;;;;;;;;;;;;;;;;;4979780;28;4614;-60
2023/01/08 01:27:19;;;;;;;;;;;;;;;;;;4981126;28;5160;-59
2023/01/08 01:29:44;;;;;;;;;;;;;;;;;;4984843;28;5237;-59
2023/01/08 01:32:09;;;;;;;;;;;;;;;;;;4989666;28;3401;-57
2023/01/08 01:34:35;;;;;;;;;;;;;;;;;;4986655;28;4995;-58
2023/01/08 01:37:00;;;;;;;;;;;;;;;;;;4980506;28;4984;-58
2023/01/08 01:39:25;;;;;;;;;;;;;;;;;;4984654;28;5211;-59
2023/01/08 01:41:52;;;;;;;;;;;;;;;;;;4987540;28;4710;-58
2023/01/08 01:44:36;;;;;;;;;;;;;;;;;;4985655;28;5391;-57
2023/01/08 01:47:01;;;;;;;;;;;;;;;;;;4984460;28;3355;-60
2023/01/08 01:49:27;;;;;;;;;;;;;;;;;;4985776;28;5101;-59
2023/01/08 01:51:52;;;;;;;;;;;;;;;;;;4998647;28;4683;-59
2023/01/08 01:54:18;;;;;;;;;;;;;;;;;;5006665;28;5235;-57
2023/01/08 01:56:43;;;;;;;;;;;;;;;;;;5003533;28;5444;-59
2023/01/08 01:59:08;;;;;;;;;;;;;;;;;;5002648;28;3362;-58
2023/01/08 02:01:34;;;;;;;;;;;;;;;;;;5003767;28;5101;-57
2023/01/08 02:03:59;;;;;;;;;;;;;;;;;;5007789;28;5021;-58
2023/01/08 02:06:35;;;;;;;;;;;;;;;;;;5000540;28;4848;-58
2023/01/08 02:09:00;;;;;;;;;;;;;;;;;;4987443;28;4996;-58
2023/01/08 02:11:46;;;;;;;;;;;;;;;;;;4990040;28;5078;-59
2023/01/08 02:14:20;;;;;;;;;;;;;;;;;;5001222;28;3264;-59
2023/01/08 02:17:05;;;;;;;;;;;;;;;;;;5004700;28;4751;-59
2023/01/08 02:19:53;;;;;;;;;;;;;;;;;;4998591;28;4978;-59
2023/01/08 02:22:23;;;;;;;;;;;;;;;;;;5003951;28;5140;-56
2023/01/08 02:24:55;;;;;;;;;;;;;;;;;;5002731;28;4469;-59
2023/01/08 02:27:22;;;;;;;;;;;;;;;;;;5002382;28;5222;-59
2023/01/08 02:29:47;;;;;;;;;;;;;;;;;;5001092;28;5843;-58
2023/01/08 02:32:12;;;;;;;;;;;;;;;;;;5007370;28;3289;-59
2023/01/08 02:34:38;;;;;;;;;;;;;;;;;;5000930;28;4990;-60
2023/01/08 02:37:03;;;;;;;;;;;;;;;;;;4999348;28;5030;-59
2023/01/08 02:39:37;;;;;;;;;;;;;;;;;;5004029;28;5143;-58
2023/01/08 02:42:10;;;;;;;;;;;;;;;;;;5003827;28;4579;-58
2023/01/08 02:44:35;;;;;;;;;;;;;;;;;;4998678;28;5429;-58
2023/01/08 02:47:00;;;;;;;;;;;;;;;;;;4985034;28;1918;-58
2023/01/08 02:49:27;;;;;;;;;;;;;;;;;;5010657;28;5111;-59
2023/01/08 02:51:52;;;;;;;;;;;;;;;;;;4989546;28;4992;-59
2023/01/08 02:54:19;;;;;;;;;;;;;;;;;;4979202;28;5061;-58
2023/01/08 02:56:45;;;;;;;;;;;;;;;;;;4986079;28;5040;-59
2023/01/08 02:59:11;;;;;;;;;;;;;;;;;;4977445;28;3540;-57
2023/01/08 03:01:36;;;;;;;;;;;;;;;;;;5000930;28;5229;-58
2023/01/08 03:04:05;;;;;;;;;;;;;;;;;;4984501;28;5013;-57
2023/01/08 03:06:31;;;;;;;;;;;;;;;;;;4967666;28;5059;-58
2023/01/08 03:08:56;;;;;;;;;;;;;;;;;;4988420;28;5035;-59
2023/01/08 03:11:21;;;;;;;;;;;;;;;;;;4987835;28;5006;-57
2023/01/08 03:13:56;;;;;;;;;;;;;;;;;;4985358;28;3315;-59
2023/01/08 03:16:23;;;;;;;;;;;;;;;;;;4983906;28;4787;-57
2023/01/08 03:18:51;;;;;;;;;;;;;;;;;;4997520;28;5260;-58
2023/01/08 03:21:16;;;;;;;;;;;;;;;;;;5007434;28;4668;-59
2023/01/08 03:23:42;;;;;;;;;;;;;;;;;;5003482;28;4941;-58
2023/01/08 03:26:07;;;;;;;;;;;;;;;;;;4999577;28;3566;-59
2023/01/08 03:28:33;;;;;;;;;;;;;;;;;;4995809;28;5080;-59
2023/01/08 03:30:59;;;;;;;;;;;;;;;;;;5020025;28;5049;-59
2023/01/08 03:33:24;;;;;;;;;;;;;;;;;;5001314;28;4690;-56
2023/01/08 03:35:50;;;;;;;;;;;;;;;;;;4992207;28;5088;-58
2023/01/08 03:38:17;;;;;;;;;;;;;;;;;;5005953;28;3491;-57
2023/01/08 03:40:44;;;;;;;;;;;;;;;;;;5002176;28;4612;-57
2023/01/08 03:43:09;;;;;;;;;;;;;;;;;;4986864;28;4991;-57
2023/01/08 03:45:35;;;;;;;;;;;;;;;;;;4990583;28;4760;-58
2023/01/08 03:48:01;;;;;;;;;;;;;;;;;;4983577;28;4991;-57
2023/01/08 03:50:26;;;;;;;;;;;;;;;;;;4981853;28;5205;-59
2023/01/08 03:52:51;;;;;;;;;;;;;;;;;;4979017;28;3443;-57
2023/01/08 03:55:17;;;;;;;;;;;;;;;;;;4982664;28;5111;-58
2023/01/08 03:57:42;;;;;;;;;;;;;;;;;;4984548;28;4524;-60
2023/01/08 04:00:08;;;;;;;;;;;;;;;;;;4984845;28;5557;-60
2023/01/08 04:02:33;;;;;;;;;;;;;;;;;;4987050;28;4586;-59
2023/01/08 04:04:58;;;;;;;;;;;;;;;;;;4987347;28;3633;-59
2023/01/08 04:07:23;;;;;;;;;;;;;;;;;;4985635;28;5009;-60
2023/01/08 04:09:49;;;;;;;;;;;;;;;;;;4997250;28;5238;-58
2023/01/08 04:12:14;;;;;;;;;;;;;;;;;;5003307;28;5175;-59
2023/01/08 04:14:39;;;;;;;;;;;;;;;;;;5007107;28;4993;-58
2023/01/08 04:17:04;;;;;;;;;;;;;;;;;;5002542;28;3518;-59
2023/01/08 04:19:30;;;;;;;;;;;;;;;;;;5006104;28;4615;-58
2023/01/08 04:21:55;;;;;;;;;;;;;;;;;;5001526;28;4864;-59
2023/01/08 04:24:20;;;;;;;;;;;;;;;;;;5007065;28;5063;-59
2023/01/08 04:26:45;;;;;;;;;;;;;;;;;;5003997;28;5170;-60
2023/01/08 04:29:11;;;;;;;;;;;;;;;;;;5009076;28;1081;-59
2023/01/08 04:31:37;;;;;;;;;;;;;;;;;;4994333;28;4404;-59
2023/01/08 04:34:02;;;;;;;;;;;;;;;;;;4995906;28;4465;-58
2023/01/08 04:36:27;;;;;;;;;;;;;;;;;;5007300;28;5060;-59
2023/01/08 04:38:52;;;;;;;;;;;;;;;;;;4992660;28;4964;-58
2023/01/08 04:41:18;;;;;;;;;;;;;;;;;;4997917;28;5021;-57
2023/01/08 04:43:43;;;;;;;;;;;;;;;;;;5001518;28;3971;-59
2023/01/08 04:46:08;;;;;;;;;;;;;;;;;;4996055;28;5028;-59
2023/01/08 04:48:33;;;;;;;;;;;;;;;;;;5002514;28;5096;-59
2023/01/08 04:50:59;;;;;;;;;;;;;;;;;;4999255;28;5042;-59
2023/01/08 04:53:25;;;;;;;;;;;;;;;;;;5002493;28;4738;-58
2023/01/08 04:55:50;;;;;;;;;;;;;;;;;;5002077;28;3290;-59
2023/01/08 04:58:15;;;;;;;;;;;;;;;;;;5001817;28;4505;-59
2023/01/08 05:00:40;;;;;;;;;;;;;;;;;;5001313;28;4897;-60
2023/01/08 05:03:06;;;;;;;;;;;;;;;;;;5000015;28;4508;-59
2023/01/08 05:05:32;;;;;;;;;;;;;;;;;;5004098;28;4985;-58
2023/01/08 05:07:57;;;;;;;;;;;;;;;;;;5005365;28;3311;-61
2023/01/08 05:10:22;;;;;;;;;;;;;;;;;;5004426;28;5224;-59
2023/01/08 05:12:48;;;;;;;;;;;;;;;;;;5000564;28;4612;-56
2023/01/08 05:15:13;;;;;;;;;;;;;;;;;;5005543;28;5374;-57
2023/01/08 05:17:38;;;;;;;;;;;;;;;;;;5002144;28;5111;-59
2023/01/08 05:20:03;;;;;;;;;;;;;;;;;;5002175;28;4344;-58
2023/01/08 05:22:29;;;;;;;;;;;;;;;;;;4997925;28;4602;-58
2023/01/08 05:24:54;;;;;;;;;;;;;;;;;;5003092;28;5175;-60
2023/01/08 05:27:19;;;;;;;;;;;;;;;;;;4996104;28;5166;-59
2023/01/08 05:29:44;;;;;;;;;;;;;;;;;;4990449;28;5179;-60
2023/01/08 05:32:12;;;;;;;;;;;;;;;;;;5000828;28;3486;-62
2023/01/08 05:34:38;;;;;;;;;;;;;;;;;;4998400;28;4666;-60
2023/01/08 05:37:03;;;;;;;;;;;;;;;;;;5002946;28;5078;-60
2023/01/08 05:39:28;;;;;;;;;;;;;;;;;;4999314;28;5170;-59
2023/01/08 05:41:53;;;;;;;;;;;;;;;;;;5005606;28;4932;-59
2023/01/08 05:44:19;;;;;;;;;;;;;;;;;;5003495;28;5353;-58
2023/01/08 05:46:44;;;;;;;;;;;;;;;;;;5000836;28;3717;-59
2023/01/08 05:49:09;;;;;;;;;;;;;;;;;;5014112;28;4485;-59
2023/01/08 05:51:34;;;;;;;;;;;;;;;;;;4997650;28;4516;-59
2023/01/08 05:53:59;;;;;;;;;;;;;;;;;;5002154;28;5013;-59
2023/01/08 05:56:25;;;;;;;;;;;;;;;;;;5001723;28;5008;-60
2023/01/08 05:58:52;;;;;;;;;;;;;;;;;;5006071;28;3794;-58
2023/01/08 06:01:17;;;;;;;;;;;;;;;;;;5004461;28;5074;-59
2023/01/08 06:03:42;;;;;;;;;;;;;;;;;;5001574;28;5304;-60
2023/01/08 06:06:08;;;;;;;;;;;;;;;;;;5001262;28;5083;-59
2023/01/08 06:08:34;;;;;;;;;;;;;;;;;;5007699;28;4452;-59
2023/01/08 06:11:02;;;;;;;;;;;;;;;;;;5007111;28;3350;-60
2023/01/08 06:13:28;;;;;;;;;;;;;;;;;;5004259;28;4857;-60
2023/01/08 06:15:54;;;;;;;;;;;;;;;;;;5006287;28;4703;-59
2023/01/08 06:18:19;;;;;;;;;;;;;;;;;;5007191;28;5218;-59
2023/01/08 06:20:44;;;;;;;;;;;;;;;;;;5005863;28;5178;-59
2023/01/08 06:23:09;;;;;;;;;;;;;;;;;;5008140;28;3578;-59
2023/01/08 06:25:35;;;;;;;;;;;;;;;;;;5009121;28;4970;-59
2023/01/08 06:28:01;;;;;;;;;;;;;;;;;;5007263;28;5051;-60
2023/01/08 06:30:26;;;;;;;;;;;;;;;;;;5009024;28;5215;-61
2023/01/08 06:32:55;;;;;;;;;;;;;;;;;;5003835;28;4697;-59
2023/01/08 06:35:20;;;;;;;;;;;;;;;;;;5008574;28;4648;-58
2023/01/08 06:37:45;;;;;;;;;;;;;;;;;;5009656;28;3328;-57
2023/01/08 06:40:11;;;;;;;;;;;;;;;;;;5003415;28;5081;-59
2023/01/08 06:42:36;;;;;;;;;;;;;;;;;;5005623;28;5069;-60
2023/01/08 06:45:01;;;;;;;;;;;;;;;;;;5006292;28;5002;-60
2023/01/08 06:47:27;;;;;;;;;;;;;;;;;;5007127;28;5084;-59
2023/01/08 06:49:52;;;;;;;;;;;;;;;;;;5004847;28;3474;-59
2023/01/08 06:52:17;;;;;;;;;;;;;;;;;;5001499;28;5120;-59
2023/01/08 06:54:42;;;;;;;;;;;;;;;;;;4999260;28;5125;-58
2023/01/08 06:57:07;;;;;;;;;;;;;;;;;;5003209;28;4620;-60
2023/01/08 06:59:33;;;;;;;;;;;;;;;;;;5000228;28;4539;-57
2023/01/08 07:01:58;;;;;;;;;;;;;;;;;;5002531;28;3365;-60
2023/01/08 07:04:23;;;;;;;;;;;;;;;;;;5002840;28;5029;-59
2023/01/08 07:06:49;;;;;;;;;;;;;;;;;;4997033;28;5047;-56
2023/01/08 07:09:14;;;;;;;;;;;;;;;;;;5000685;28;5032;-60
2023/01/08 07:11:39;;;;;;;;;;;;;;;;;;5002119;28;4822;-60
2023/01/08 07:14:05;;;;;;;;;;;;;;;;;;4986623;28;3206;-59
2023/01/08 07:16:30;;;;;;;;;;;;;;;;;;4978103;28;4957;-58
2023/01/08 07:18:55;;;;;;;;;;;;;;;;;;4994355;28;5036;-59
2023/01/08 07:21:21;;;;;;;;;;;;;;;;;;5003334;28;5069;-58
2023/01/08 07:23:47;;;;;;;;;;;;;;;;;;4999486;28;4541;-60
2023/01/08 07:26:12;;;;;;;;;;;;;;;;;;5004494;28;3363;-58
2023/01/08 07:28:37;;;;;;;;;;;;;;;;;;5004882;28;4393;-60
2023/01/08 07:31:04;;;;;;;;;;;;;;;;;;5006916;28;4833;-61
2023/01/08 07:33:29;;;;;;;;;;;;;;;;;;4994554;28;4957;-60
2023/01/08 07:35:54;;;;;;;;;;;;;;;;;;4984184;28;4529;-61
2023/01/08 07:38:20;;;;;;;;;;;;;;;;;;4982760;28;5079;-58
2023/01/08 07:40:45;;;;;;;;;;;;;;;;;;4982863;28;3390;-61
2023/01/08 07:43:11;;;;;;;;;;;;;;;;;;4986814;28;4946;-61
2023/01/08 07:45:37;;;;;;;;;;;;;;;;;;4983514;28;4952;-60
2023/01/08 07:48:02;;;;;;;;;;;;;;;;;;5003618;28;5104;-60
2023/01/08 07:50:27;;;;;;;;;;;;;;;;;;5007353;28;5147;-60
2023/01/08 07:52:55;;;;;;;;;;;;;;;;;;5007480;28;3714;-61
2023/01/08 07:55:20;;;;;;;;;;;;;;;;;;5004258;28;5021;-60
2023/01/08 07:57:45;;;;;;;;;;;;;;;;;;5003039;28;4485;-61
2023/01/08 08:00:11;;;;;;;;;;;;;;;;;;5004418;28;4972;-63
2023/01/08 08:02:36;;;;;;;;;;;;;;;;;;5006526;28;5570;-59
2023/01/08 08:05:01;;;;;;;;;;;;;;;;;;5001571;28;3315;-60
2023/01/08 08:07:29;;;;;;;;;;;;;;;;;;4999090;28;4501;-61
2023/01/08 08:09:54;;;;;;;;;;;;;;;;;;5000382;28;4483;-61
2023/01/08 08:12:19;;;;;;;;;;;;;;;;;;4996336;28;5083;-62
2023/01/08 08:14:45;;;;;;;;;;;;;;;;;;4998826;28;4566;-62
2023/01/08 08:17:10;;;;;;;;;;;;;;;;;;5007780;28;1209;-63
2023/01/08 08:19:35;;;;;;;;;;;;;;;;;;4998351;28;4584;-63
2023/01/08 08:22:00;;;;;;;;;;;;;;;;;;5002389;28;5278;-60
2023/01/08 08:24:26;;;;;;;;;;;;;;;;;;5001935;28;4608;-60
2023/01/08 08:26:53;;;;;;;;;;;;;;;;;;5002975;28;5078;-58
2023/01/08 08:29:18;;;;;;;;;;;;;;;;;;5002223;28;5073;-55
2023/01/08 08:31:43;;;;;;;;;;;;;;;;;;4999763;28;3316;-58
2023/01/08 08:34:08;;;;;;;;;;;;;;;;;;4997793;28;4912;-58
2023/01/08 08:36:34;;;;;;;;;;;;;;;;;;4999914;28;5187;-58
2023/01/08 08:39:00;;;;;;;;;;;;;;;;;;4997110;28;5031;-59
2023/01/08 08:41:25;;;;;;;;;;;;;;;;;;4992349;28;5172;-59
2023/01/08 08:43:51;;;;;;;;;;;;;;;;;;5000999;28;3367;-59
2023/01/08 08:46:16;;;;;;;;;;;;;;;;;;4996194;28;4684;-61
2023/01/08 08:48:43;;;;;;;;;;;;;;;;;;4991714;28;5235;-60
2023/01/08 08:51:08;;;;;;;;;;;;;;;;;;4992545;28;5136;-60
2023/01/08 08:53:33;;;;;;;;;;;;;;;;;;5001158;28;5062;-62
2023/01/08 08:55:59;;;;;;;;;;;;;;;;;;5002793;28;3263;-63
2023/01/08 08:58:24;;;;;;;;;;;;;;;;;;5002673;28;4802;-59
2023/01/08 09:00:49;;;;;;;;;;;;;;;;;;5002615;28;5125;-62
2023/01/08 09:03:14;;;;;;;;;;;;;;;;;;5002644;28;4533;-65
2023/01/08 09:05:41;;;;;;;;;;;;;;;;;;4995928;28;5152;-65
2023/01/08 09:08:07;;;;;;;;;;;;;;;;;;4998602;28;3378;-60
2023/01/08 09:10:32;;;;;;;;;;;;;;;;;;4998280;28;4651;-65
2023/01/08 09:12:57;;;;;;;;;;;;;;;;;;4996505;28;5167;-59
2023/01/08 09:15:22;;;;;;;;;;;;;;;;;;4996935;28;5082;-62
2023/01/08 09:17:54;;;;;;;;;;;;;;;;;;5007590;28;5138;-59
2023/01/08 09:20:20;;;;;;;;;;;;;;;;;;5006802;28;4605;-59
2023/01/08 09:22:45;;;;;;;;;;;;;;;;;;5002101;28;3609;-59
2023/01/08 09:25:10;;;;;;;;;;;;;;;;;;5009419;28;4477;-59
2023/01/08 09:27:35;;;;;;;;;;;;;;;;;;5008726;28;5043;-59
2023/01/08 09:30:01;;;;;;;;;;;;;;;;;;5009991;28;5068;-63
2023/01/08 09:32:26;;;;;;;;;;;;;;;;;;5002643;28;4560;-62
2023/01/08 09:34:51;;;;;;;;;;;;;;;;;;5003962;28;3278;-68
2023/01/08 09:37:16;;;;;;;;;;;;;;;;;;5010230;28;4747;-67
2023/01/08 09:39:42;;;;;;;;;;;;;;;;;;5009184;28;4646;-58
2023/01/08 09:42:07;;;;;;;;;;;;;;;;;;5005619;28;4682;-60
2023/01/08 09:44:34;;;;;;;;;;;;;;;;;;5008787;28;5047;-61
2023/01/08 09:46:59;;;;;;;;;;;;;;;;;;5009995;28;3425;-61
2023/01/08 09:49:27;;;;;;;;;;;;;;;;;;5008643;28;5068;-61
2023/01/08 09:51:52;;;;;;;;;;;;;;;;;;5008443;28;4625;-60
2023/01/08 09:54:18;;;;;;;;;;;;;;;;;;5008907;28;4503;-61
2023/01/08 09:56:43;;;;;;;;;;;;;;;;;;5005359;28;4694;-60
2023/01/08 09:59:12;;;;;;;;;;;;;;;;;;5024198;28;3139;-61
2023/01/08 10:01:38;;;;;;;;;;;;;;;;;;4987551;28;4998;-60
2023/01/08 10:04:16;;;;;;;;;;;;;;;;;;4985555;28;5034;-62
2023/01/08 10:06:52;;;;;;;;;;;;;;;;;;4988208;28;4494;-60
2023/01/08 10:09:18;;;;;;;;;;;;;;;;;;4992129;28;4555;-62
2023/01/08 10:11:44;;;;;;;;;;;;;;;;;;4998677;28;4640;-56
2023/01/08 10:14:16;;;;;;;;;;;;;;;;;;4982806;28;3351;-59
2023/01/08 10:16:41;;;;;;;;;;;;;;;;;;5005244;28;4585;-59
2023/01/08 10:19:06;;;;;;;;;;;;;;;;;;4987212;28;5084;-59
2023/01/08 10:21:35;;;;;;;;;;;;;;;;;;4986119;28;5197;-59
2023/01/08 10:24:01;;;;;;;;;;;;;;;;;;4993120;28;4705;-48
2023/01/08 10:26:30;;;;;;;;;;;;;;;;;;4975331;28;5464;-50
2023/01/08 10:29:24;;;;;;;;;;;;;;;;;;4987117;28;3393;-48
2023/01/08 10:31:51;;;;;;;;;;;;;;;;;;4998994;28;4566;-50
2023/01/08 10:34:45;;;;;;;;;;;;;;;;;;5005391;28;4671;-47
2023/01/08 10:37:14;;;;;;;;;;;;;;;;;;4985439;28;4974;-52
2023/01/08 10:39:43;;;;;;;;;;;;;;;;;;4987823;28;4524;-50
2023/01/08 10:42:08;;;;;;;;;;;;;;;;;;4979951;28;5141;-49
2023/01/08 10:44:34;;;;;;;;;;;;;;;;;;4984037;28;4760;-50
2023/01/08 10:47:00;;;;;;;;;;;;;;;;;;4985607;28;3539;-50
2023/01/08 10:49:35;;;;;;;;;;;;;;;;;;4980020;28;5081;-53
2023/01/08 10:52:01;;;;;;;;;;;;;;;;;;4978217;28;5125;-54
2023/01/08 10:54:32;;;;;;;;;;;;;;;;;;4980464;28;4587;-51
2023/01/08 10:56:57;;;;;;;;;;;;;;;;;;4986130;28;4662;-51
2023/01/08 10:59:23;;;;;;;;;;;;;;;;;;5010485;28;4739;-49
2023/01/08 11:01:49;;;;;;;;;;;;;;;;;;4994696;28;3376;-54
2023/01/08 11:04:19;;;;;;;;;;;;;;;;;;4982082;28;4530;-62
2023/01/08 11:06:45;;;;;;;;;;;;;;;;;;4975870;28;5189;-51
2023/01/08 11:09:34;;;;;;;;;;;;;;;;;;5009710;28;5216;-50
2023/01/08 11:12:00;;;;;;;;;;;;;;;;;;4974569;28;5026;-49
2023/01/08 11:14:33;;;;;;;;;;;;;;;;;;5009068;28;5215;-49
2023/01/08 11:16:59;;;;;;;;;;;;;;;;;;4991923;28;3663;-46
2023/01/08 11:19:26;;;;;;;;;;;;;;;;;;4982431;28;5192;-49
2023/01/08 11:21:57;;;;;;;;;;;;;;;;;;4981013;28;5046;-51
2023/01/08 11:24:29;;;;;;;;;;;;;;;;;;4991377;28;5088;-47
2023/01/08 11:27:26;;;;;;;;;;;;;;;;;;4996920;28;4991;-46
2023/01/08 11:29:55;;;;;;;;;;;;;;;;;;4956627;28;5201;-50
2023/01/08 11:32:36;;;;;;;;;;;;;;;;;;4989151;28;5129;-50
2023/01/08 11:35:07;;;;;;;;;;;;;;;;;;4971522;28;3749;-49
2023/01/08 11:37:33;;;;;;;;;;;;;;;;;;4981730;28;5136;-49
2023/01/08 11:39:58;;;;;;;;;;;;;;;;;;4985108;28;5088;-48
2023/01/08 11:42:23;;;;;;;;;;;;;;;;;;4989142;28;5388;-47
2023/01/08 11:44:48;;;;;;;;;;;;;;;;;;5000096;28;4862;-48
2023/01/08 11:47:37;;;;;;;;;;;;;;;;;;4984306;28;3848;-50
2023/01/08 11:50:08;;;;;;;;;;;;;;;;;;4978540;28;4647;-49
2023/01/08 11:52:34;;;;;;;;;;;;;;;;;;5001155;28;5003;-46
2023/01/08 11:55:05;;;;;;;;;;;;;;;;;;5001254;28;4447;-52
2023/01/08 11:57:34;;;;;;;;;;;;;;;;;;5002378;28;5290;-53
2023/01/08 12:00:00;;;;;;;;;;;;;;;;;;4990004;28;4958;-51
2023/01/08 12:02:30;;;;;;;;;;;;;;;;;;4986519;28;5115;-48
2023/01/08 12:05:10;;;;;;;;;;;;;;;;;;4982814;28;3607;-52
2023/01/08 12:07:40;;;;;;;;;;;;;;;;;;4982314;28;4455;-48
2023/01/08 12:10:24;;;;;;;;;;;;;;;;;;4993537;28;4705;-48
2023/01/08 12:12:54;;;;;;;;;;;;;;;;;;5001850;28;4952;-47
2023/01/08 12:15:32;;;;;;;;;;;;;;;;;;4998725;28;4935;-48
2023/01/08 12:18:16;;;;;;;;;;;;;;;;;;5005450;28;5006;-50
2023/01/08 12:20:47;;;;;;;;;;;;;;;;;;5001092;28;5043;-49
2023/01/08 12:23:12;;;;;;;;;;;;;;;;;;5004870;28;3268;-49
2023/01/08 12:25:44;;;;;;;;;;;;;;;;;;5003890;28;4977;-50
2023/01/08 12:28:21;;;;;;;;;;;;;;;;;;4991866;28;4692;-50
2023/01/08 12:30:52;;;;;;;;;;;;;;;;;;5000270;28;4896;-52
2023/01/08 12:33:18;;;;;;;;;;;;;;;;;;5001909;28;5117;-49
2023/01/08 12:35:47;;;;;;;;;;;;;;;;;;5001422;28;5173;-49
2023/01/08 12:38:43;;;;;;;;;;;;;;;;;;5006113;28;3310;-49
2023/01/08 12:41:09;;;;;;;;;;;;;;;;;;4995308;28;5036;-48
2023/01/08 12:43:47;;;;;;;;;;;;;;;;;;4992171;28;5066;-48
2023/01/08 12:46:15;;;;;;;;;;;;;;;;;;4997449;28;5169;-48
2023/01/08 12:48:40;;;;;;;;;;;;;;;;;;5005487;28;4750;-49
2023/01/08 12:51:06;;;;;;;;;;;;;;;;;;5011477;28;5046;-48
2023/01/08 12:53:42;;;;;;;;;;;;;;;;;;5001561;28;5113;-49
2023/01/08 12:56:08;;;;;;;;;;;;;;;;;;4985840;28;3511;-49
2023/01/08 12:58:38;;;;;;;;;;;;;;;;;;4980067;28;4991;-48
2023/01/08 13:01:05;;;;;;;;;;;;;;;;;;5002756;28;4708;-46
2023/01/08 13:03:30;;;;;;;;;;;;;;;;;;4991000;28;5458;-47
2023/01/08 13:06:05;;;;;;;;;;;;;;;;;;5000098;28;5142;-47
2023/01/08 13:08:33;;;;;;;;;;;;;;;;;;4987871;28;5117;-48
2023/01/08 13:10:58;;;;;;;;;;;;;;;;;;4987292;28;1405;-49
2023/01/08 13:13:23;;;;;;;;;;;;;;;;;;4993499;28;5028;-49
2023/01/08 13:15:48;;;;;;;;;;;;;;;;;;4985752;28;5022;-51
2023/01/08 13:18:17;;;;;;;;;;;;;;;;;;4982058;28;4788;-49
2023/01/08 13:20:42;;;;;;;;;;;;;;;;;;4993055;28;5222;-51
2023/01/08 13:23:17;;;;;;;;;;;;;;;;;;5008068;28;4252;-49
2023/01/08 13:25:49;;;;;;;;;;;;;;;;;;5003835;28;5080;-47
2023/01/08 13:28:25;;;;;;;;;;;;;;;;;;4985464;28;5165;-48
2023/01/08 13:30:51;;;;;;;;;;;;;;;;;;4975717;28;5563;-50
2023/01/08 13:33:26;;;;;;;;;;;;;;;;;;4984780;28;5526;-49
2023/01/08 13:35:51;;;;;;;;;;;;;;;;;;4986888;28;4604;-48
2023/01/08 13:38:17;;;;;;;;;;;;;;;;;;4994081;28;5148;-47
2023/01/08 13:40:43;;;;;;;;;;;;;;;;;;4985076;28;3457;-47
2023/01/08 13:43:15;;;;;;;;;;;;;;;;;;4986821;28;5019;-50
2023/01/08 13:45:40;;;;;;;;;;;;;;;;;;4987913;28;4997;-49
2023/01/08 13:48:17;;;;;;;;;;;;;;;;;;4986605;28;4613;-49
2023/01/08 13:50:43;;;;;;;;;;;;;;;;;;4982710;28;5190;-69
2023/01/08 13:53:10;;;;;;;;;;;;;;;;;;5005158;28;3609;-57
2023/01/08 13:55:38;;;;;;;;;;;;;;;;;;4986808;28;4974;-62
2023/01/08 13:58:06;;;;;;;;;;;;;;;;;;4982923;28;5057;-60
2023/01/08 14:00:43;;;;;;;;;;;;;;;;;;4984257;28;5298;-63
2023/01/08 14:03:41;;;;;;;;;;;;;;;;;;4980808;28;4521;-62
2023/01/08 14:06:06;;;;;;;;;;;;;;;;;;4942154;28;5026;-65
2023/01/08 14:08:32;;;;;;;;;;;;;;;;;;4977531;28;5058;-62
2023/01/08 14:10:57;;;;;;;;;;;;;;;;;;4994853;28;3884;-59
2023/01/08 14:13:26;;;;;;;;;;;;;;;;;;4996068;28;4708;-53
2023/01/08 14:15:51;;;;;;;;;;;;;;;;;;4999590;28;4518;-54
2023/01/08 14:18:16;;;;;;;;;;;;;;;;;;5003773;28;5046;-51
2023/01/08 14:20:42;;;;;;;;;;;;;;;;;;5003744;28;4737;-51
2023/01/08 14:23:12;;;;;;;;;;;;;;;;;;5007015;28;3404;-49
2023/01/08 14:25:37;;;;;;;;;;;;;;;;;;5006677;28;5028;-54
2023/01/08 14:28:03;;;;;;;;;;;;;;;;;;5003228;28;5191;-50
2023/01/08 14:30:28;;;;;;;;;;;;;;;;;;5001613;28;4674;-50
2023/01/08 14:32:57;;;;;;;;;;;;;;;;;;5000309;28;4667;-46
2023/01/08 14:35:25;;;;;;;;;;;;;;;;;;4985922;28;5220;-53
2023/01/08 14:37:50;;;;;;;;;;;;;;;;;;4987064;28;3546;-50
2023/01/08 14:40:16;;;;;;;;;;;;;;;;;;4983984;28;4550;-51
2023/01/08 14:42:43;;;;;;;;;;;;;;;;;;4994151;28;5067;-52
2023/01/08 14:45:14;;;;;;;;;;;;;;;;;;4991936;28;4541;-47
2023/01/08 14:47:43;;;;;;;;;;;;;;;;;;5000544;28;5011;-47
2023/01/08 14:50:15;;;;;;;;;;;;;;;;;;5003805;28;3490;-46
2023/01/08 14:52:41;;;;;;;;;;;;;;;;;;5003630;28;4931;-51
2023/01/08 14:55:06;;;;;;;;;;;;;;;;;;4996104;28;4929;-52
2023/01/08 14:57:31;;;;;;;;;;;;;;;;;;4998600;28;5192;-53
2023/01/08 14:59:57;;;;;;;;;;;;;;;;;;4998739;28;4553;-51
2023/01/08 15:02:32;;;;;;;;;;;;;;;;;;4999322;28;5125;-50
2023/01/08 15:05:01;;;;;;;;;;;;;;;;;;5003810;28;3614;-55
2023/01/08 15:07:27;;;;;;;;;;;;;;;;;;4999379;28;4465;-48
2023/01/08 15:09:59;;;;;;;;;;;;;;;;;;5002937;28;4689;-51
2023/01/08 15:12:26;;;;;;;;;;;;;;;;;;5006612;28;4876;-53
2023/01/08 15:14:53;;;;;;;;;;;;;;;;;;5007661;28;4712;-50
2023/01/08 15:17:19;;;;;;;;;;;;;;;;;;5004152;28;4531;-50
2023/01/08 15:19:47;;;;;;;;;;;;;;;;;;5002477;28;4429;-49
2023/01/08 15:22:14;;;;;;;;;;;;;;;;;;5006255;28;5180;-50
2023/01/08 15:24:39;;;;;;;;;;;;;;;;;;5006579;28;4495;-46
2023/01/08 15:27:11;;;;;;;;;;;;;;;;;;5005721;28;4727;-47
2023/01/08 15:29:37;;;;;;;;;;;;;;;;;;4998012;28;5049;-50
2023/01/08 15:32:14;;;;;;;;;;;;;;;;;;5000367;28;3389;-49
2023/01/08 15:34:43;;;;;;;;;;;;;;;;;;5010276;28;5044;-47
2023/01/08 15:37:09;;;;;;;;;;;;;;;;;;5007799;28;5017;-50
2023/01/08 15:39:34;;;;;;;;;;;;;;;;;;5001848;28;4505;-54
2023/01/08 15:44:43;;;;;;;;;;;;;;;;;;5003334;28;4505;-47
2023/01/08 15:47:08;;;;;;;;;;;;;;;;;;5005641;28;3883;-49
2023/01/08 15:49:34;;;;;;;;;;;;;;;;;;4999469;28;5282;-49
2023/01/08 15:51:59;;;;;;;;;;;;;;;;;;5005433;28;4630;-52
2023/01/08 15:54:25;;;;;;;;;;;;;;;;;;5002466;28;4533;-48
2023/01/08 15:56:50;;;;;;;;;;;;;;;;;;4987652;28;5035;-49
2023/01/08 15:59:15;;;;;;;;;;;;;;;;;;5003027;28;3482;-49
2023/01/08 16:01:40;;;;;;;;;;;;;;;;;;5006271;28;4594;-48
2023/01/08 16:04:06;;;;;;;;;;;;;;;;;;5010424;28;4753;-46
2023/01/08 16:06:31;;;;;;;;;;;;;;;;;;5005184;28;5171;-50
2023/01/08 16:08:59;;;;;;;;;;;;;;;;;;4993934;28;5109;-54
2023/01/08 16:11:24;;;;;;;;;;;;;;;;;;4997016;28;4906;-51
2023/01/08 16:13:49;;;;;;;;;;;;;;;;;;4999247;28;3371;-52
2023/01/08 16:16:14;;;;;;;;;;;;;;;;;;5005115;28;4885;-50
2023/01/08 16:18:40;;;;;;;;;;;;;;;;;;4999390;28;4580;-54
2023/01/08 16:21:05;;;;;;;;;;;;;;;;;;5001645;28;5091;-51
2023/01/08 16:23:37;;;;;;;;;;;;;;;;;;5000365;28;5051;-48
2023/01/08 16:26:05;;;;;;;;;;;;;;;;;;4997595;28;3382;-54
2023/01/08 16:28:30;;;;;;;;;;;;;;;;;;5003573;28;4982;-50
2023/01/08 16:30:56;;;;;;;;;;;;;;;;;;4980637;28;5080;-55
2023/01/08 16:33:21;;;;;;;;;;;;;;;;;;5004379;28;5237;-49
2023/01/08 16:35:55;;;;;;;;;;;;;;;;;;4994921;28;5111;-47
2023/01/08 16:38:20;;;;;;;;;;;;;;;;;;4997848;28;4941;-51
2023/01/08 16:40:45;;;;;;;;;;;;;;;;;;4991861;28;3609;-55
2023/01/08 16:43:11;;;;;;;;;;;;;;;;;;4996910;28;5023;-53
2023/01/08 16:45:37;;;;;;;;;;;;;;;;;;5001468;28;4600;-48
2023/01/08 16:48:03;;;;;;;;;;;;;;;;;;4998233;28;5167;-48
2023/01/08 16:50:28;;;;;;;;;;;;;;;;;;5005306;28;4584;-50
2023/01/08 16:52:53;;;;;;;;;;;;;;;;;;4981154;28;3346;-49
2023/01/08 16:55:19;;;;;;;;;;;;;;;;;;5003765;28;5020;-54
2023/01/08 16:57:45;;;;;;;;;;;;;;;;;;4996243;28;5066;-48
2023/01/08 17:00:10;;;;;;;;;;;;;;;;;;4997450;28;4663;-52
2023/01/08 17:02:36;;;;;;;;;;;;;;;;;;5003223;28;4941;-50
2023/01/08 17:05:02;;;;;;;;;;;;;;;;;;5003046;28;3472;-49
2023/01/08 17:07:27;;;;;;;;;;;;;;;;;;4999266;28;4541;-51